createdAt,value
2023-03-12T00:01:17.198Z,9.32
2023-03-12T00:03:43.704Z,10.23
2023-03-12T00:06:11.208Z,12.40
2023-03-12T00:08:37.656Z,10.60
2023-03-12T00:11:11.096Z,13.40
2023-03-12T00:13:37.464Z,10.10
2023-03-12T00:16:11.644Z,13.45
2023-03-12T00:18:38.378Z,10.82
2023-03-12T00:21:05.461Z,9.27
2023-03-12T00:23:31.866Z,12.90
2023-03-12T00:26:05.703Z,13.23
2023-03-12T00:28:32.103Z,12.02
2023-03-12T00:30:58.676Z,9.70
2023-03-12T00:33:25.879Z,10.18
2023-03-12T00:35:52.433Z,10.77
2023-03-12T00:38:18.775Z,16.98
2023-03-12T00:40:45.132Z,9.05
2023-03-12T00:43:11.454Z,9.75
2023-03-12T00:45:37.767Z,10.57
2023-03-12T00:48:04.352Z,9.77
2023-03-12T00:50:30.829Z,11.55
2023-03-12T00:52:57.208Z,14.00
2023-03-12T00:55:23.662Z,11.00
2023-03-12T00:57:50.052Z,10.40
2023-03-12T01:00:16.750Z,8.88
2023-03-12T01:02:43.215Z,8.40
2023-03-12T01:05:11.185Z,12.18
2023-03-12T01:07:37.630Z,9.93
2023-03-12T01:10:04.353Z,12.00
2023-03-12T01:12:30.771Z,7.82
2023-03-12T01:14:57.164Z,10.77
2023-03-12T01:17:23.562Z,8.00
2023-03-12T01:19:50.074Z,11.52
2023-03-12T01:22:16.388Z,8.75
2023-03-12T01:24:42.889Z,10.95
2023-03-12T01:27:09.239Z,9.45
2023-03-12T01:29:35.858Z,13.63
2023-03-12T01:32:02.238Z,13.00
2023-03-12T01:34:28.971Z,9.38
2023-03-12T01:36:55.502Z,7.72
2023-03-12T01:39:21.830Z,10.20
2023-03-12T01:41:48.178Z,8.55
2023-03-12T01:44:14.919Z,10.00
2023-03-12T01:46:43.255Z,8.82
2023-03-12T01:49:24.961Z,9.80
2023-03-12T01:51:51.309Z,13.77
2023-03-12T01:54:23.303Z,8.80
2023-03-12T01:56:49.882Z,7.68
2023-03-12T01:59:24.765Z,10.10
2023-03-12T02:01:51.455Z,12.75
2023-03-12T02:04:19.045Z,9.63
2023-03-12T02:07:04.467Z,10.18
2023-03-12T02:09:35.398Z,11.40
2023-03-12T02:14:28.253Z,10.55
2023-03-12T02:16:55.532Z,9.60
2023-03-12T02:19:34.213Z,11.77
2023-03-12T02:22:00.628Z,10.85
2023-03-12T02:24:45.903Z,11.35
2023-03-12T02:27:12.617Z,8.68
2023-03-12T02:29:40.586Z,9.02
2023-03-12T02:32:08.174Z,10.38
2023-03-12T02:34:35.859Z,9.65
2023-03-12T02:37:02.233Z,7.97
2023-03-12T02:39:28.688Z,8.50
2023-03-12T02:41:57.721Z,7.95
2023-03-12T02:44:25.352Z,11.93
2023-03-12T02:46:53.429Z,8.48
2023-03-12T02:49:20.281Z,8.65
2023-03-12T02:51:47.683Z,7.18
2023-03-12T02:54:15.065Z,8.20
2023-03-12T02:56:41.517Z,7.70
2023-03-12T02:59:08.687Z,7.30
2023-03-12T03:01:35.322Z,5.78
2023-03-12T03:04:02.759Z,7.85
2023-03-12T03:06:29.217Z,9.63
2023-03-12T03:08:55.537Z,8.50
2023-03-12T03:11:24.385Z,11.95
2023-03-12T03:13:51.478Z,7.97
2023-03-12T03:16:17.819Z,11.13
2023-03-12T03:18:44.184Z,8.23
2023-03-12T03:21:16.283Z,7.82
2023-03-12T03:23:47.261Z,8.90
2023-03-12T03:26:14.019Z,6.00
2023-03-12T03:28:40.416Z,7.22
2023-03-12T03:31:07.043Z,8.50
2023-03-12T03:33:34.992Z,7.25
2023-03-12T03:36:02.004Z,5.70
2023-03-12T03:38:29.305Z,7.80
2023-03-12T03:40:56.092Z,9.15
2023-03-12T03:43:22.753Z,5.93
2023-03-12T03:45:49.681Z,6.63
2023-03-12T03:48:15.980Z,7.45
2023-03-12T03:50:42.340Z,7.22
2023-03-12T03:53:09.341Z,8.98
2023-03-12T03:55:36.554Z,9.27
2023-03-12T03:58:02.876Z,5.95
2023-03-12T04:00:29.309Z,6.70
2023-03-12T04:02:55.747Z,10.55
2023-03-12T04:05:22.247Z,6.18
2023-03-12T04:07:48.643Z,8.38
2023-03-12T04:10:15.122Z,7.13
2023-03-12T04:12:41.471Z,8.90
2023-03-12T04:15:08.043Z,7.90
2023-03-12T04:17:34.349Z,10.40
2023-03-12T04:20:00.682Z,8.15
2023-03-12T04:22:27.261Z,8.18
2023-03-12T04:24:53.915Z,8.27
2023-03-12T04:27:20.271Z,6.45
2023-03-12T04:29:46.598Z,7.22
2023-03-12T04:32:12.914Z,6.95
2023-03-12T04:34:39.220Z,8.93
2023-03-12T04:37:05.617Z,7.03
2023-03-12T04:39:31.964Z,7.03
2023-03-12T04:41:58.328Z,9.65
2023-03-12T04:44:24.634Z,7.03
2023-03-12T04:46:51.184Z,7.50
2023-03-12T04:49:17.546Z,7.97
2023-03-12T04:51:43.858Z,9.55
2023-03-12T04:54:10.208Z,9.45
2023-03-12T04:56:36.616Z,7.55
2023-03-12T04:59:03.032Z,8.82
2023-03-12T05:01:31.634Z,7.63
2023-03-12T05:03:58.017Z,11.90
2023-03-12T05:06:24.995Z,9.60
2023-03-12T05:08:51.653Z,10.90
2023-03-12T05:11:18.481Z,8.80
2023-03-12T05:13:45.194Z,10.25
2023-03-12T05:16:12.016Z,13.07
2023-03-12T05:18:38.512Z,9.55
2023-03-12T05:21:06.708Z,10.07
2023-03-12T05:23:33.500Z,11.45
2023-03-12T05:25:59.970Z,10.95
2023-03-12T05:28:28.316Z,8.40
2023-03-12T05:30:55.888Z,8.75
2023-03-12T05:33:22.366Z,9.25
2023-03-12T05:35:48.703Z,9.80
2023-03-12T05:38:15.064Z,7.22
2023-03-12T05:40:41.452Z,8.45
2023-03-12T05:43:07.733Z,13.80
2023-03-12T05:45:34.074Z,11.52
2023-03-12T05:48:00.437Z,10.13
2023-03-12T05:50:26.828Z,10.60
2023-03-12T05:52:53.656Z,9.90
2023-03-12T05:55:20.066Z,8.93
2023-03-12T05:57:46.362Z,8.73
2023-03-12T06:00:13.925Z,9.10
2023-03-12T06:02:40.459Z,11.38
2023-03-12T06:05:07.049Z,11.02
2023-03-12T06:07:33.355Z,9.85
2023-03-12T06:09:59.947Z,11.50
2023-03-12T06:12:26.257Z,9.73
2023-03-12T06:14:52.619Z,11.40
2023-03-12T06:17:18.908Z,15.05
2023-03-12T06:19:45.297Z,11.57
2023-03-12T06:22:11.716Z,6.70
2023-03-12T06:24:38.149Z,8.05
2023-03-12T06:27:05.207Z,9.57
2023-03-12T06:29:31.587Z,8.32
2023-03-12T06:31:57.942Z,12.57
2023-03-12T06:34:24.579Z,9.60
2023-03-12T06:36:50.935Z,12.65
2023-03-12T06:39:18.324Z,10.65
2023-03-12T06:41:45.083Z,13.18
2023-03-12T06:44:11.599Z,11.50
2023-03-12T06:46:38.165Z,15.70
2023-03-12T06:49:04.607Z,16.35
2023-03-12T06:51:30.955Z,9.88
2023-03-12T06:53:57.329Z,11.80
2023-03-12T06:56:23.636Z,15.68
2023-03-12T06:58:50.197Z,14.23
2023-03-12T07:01:16.477Z,15.73
2023-03-12T07:03:43.620Z,13.27
2023-03-12T07:06:17.663Z,15.73
2023-03-12T07:08:44.137Z,12.98
2023-03-12T07:11:10.676Z,12.35
2023-03-12T07:13:37.077Z,15.65
2023-03-12T07:16:03.905Z,17.85
2023-03-12T07:18:30.312Z,16.77
2023-03-12T07:20:56.644Z,13.75
2023-03-12T07:23:23.283Z,15.60
2023-03-12T07:25:49.605Z,17.90
2023-03-12T07:28:17.130Z,13.68
2023-03-12T07:30:43.542Z,14.10
2023-03-12T07:33:11.523Z,15.70
2023-03-12T07:35:38.962Z,15.82
2023-03-12T07:38:05.852Z,21.70
2023-03-12T07:40:32.239Z,16.95
2023-03-12T07:42:58.512Z,13.07
2023-03-12T07:45:25.400Z,15.60
2023-03-12T07:47:52.037Z,16.90
2023-03-12T07:50:18.713Z,16.67
2023-03-12T07:52:45.647Z,15.65
2023-03-12T07:55:12.244Z,15.82
2023-03-12T07:57:38.964Z,22.85
2023-03-12T08:00:08.712Z,14.80
2023-03-12T08:02:35.203Z,12.57
2023-03-12T08:05:01.914Z,15.77
2023-03-12T08:07:32.233Z,18.73
2023-03-12T08:09:59.217Z,17.27
2023-03-12T08:12:25.600Z,18.05
2023-03-12T08:14:51.874Z,22.23
2023-03-12T08:17:18.378Z,16.58
2023-03-12T08:19:44.735Z,19.40
2023-03-12T08:22:11.221Z,20.75
2023-03-12T08:24:37.518Z,20.15
2023-03-12T08:27:03.886Z,17.02
2023-03-12T08:29:30.221Z,17.38
2023-03-12T08:32:04.657Z,24.45
2023-03-12T08:34:31.978Z,20.77
2023-03-12T08:36:58.281Z,17.08
2023-03-12T08:39:24.573Z,19.75
2023-03-12T08:41:55.154Z,20.55
2023-03-12T08:44:22.337Z,23.33
2023-03-12T08:46:51.403Z,32.33
2023-03-12T08:49:17.781Z,22.95
2023-03-12T08:51:44.148Z,20.15
2023-03-12T08:54:10.595Z,20.70
2023-03-12T08:56:43.081Z,20.52
2023-03-12T08:59:13.006Z,22.63
2023-03-12T09:01:41.684Z,26.27
2023-03-12T09:04:09.456Z,29.00
2023-03-12T09:06:36.161Z,24.77
2023-03-12T09:09:05.400Z,24.02
2023-03-12T09:11:32.918Z,25.92
2023-03-12T09:14:33.495Z,29.42
2023-03-12T09:16:46.144Z,27.80
2023-03-12T09:19:12.508Z,29.17
2023-03-12T09:21:40.293Z,35.20
2023-03-12T09:24:07.187Z,36.05
2023-03-12T09:26:33.832Z,31.80
2023-03-12T09:29:00.252Z,31.83
2023-03-12T09:31:26.995Z,30.55
2023-03-12T09:33:53.322Z,33.00
2023-03-12T09:36:19.693Z,33.53
2023-03-12T09:38:46.022Z,31.60
2023-03-12T09:41:32.056Z,36.10
2023-03-12T09:44:01.309Z,34.90
2023-03-12T09:46:32.436Z,34.78
2023-03-12T09:49:01.825Z,41.80
2023-03-12T09:51:39.024Z,45.08
2023-03-12T09:54:07.383Z,47.13
2023-03-12T09:56:34.629Z,49.20
2023-03-12T09:59:01.134Z,48.22
2023-03-12T10:01:33.420Z,42.90
2023-03-12T10:04:05.902Z,42.95
2023-03-12T10:06:35.609Z,49.85
2023-03-12T10:09:20.965Z,49.58
2023-03-12T10:11:47.204Z,48.85
2023-03-12T10:14:32.512Z,48.10
2023-03-12T10:17:17.593Z,49.28
2023-03-12T10:19:56.853Z,40.30
2023-03-12T10:22:23.166Z,40.97
2023-03-12T10:25:08.188Z,54.85
2023-03-12T10:27:36.982Z,50.70
2023-03-12T10:30:04.093Z,45.42
2023-03-12T10:32:39.072Z,50.53
2023-03-12T10:35:21.646Z,50.10
2023-03-12T10:37:48.215Z,47.45
2023-03-12T10:40:16.390Z,55.60
2023-03-12T10:42:43.086Z,51.55
2023-03-12T10:45:09.405Z,50.58
2023-03-12T10:47:35.851Z,53.75
2023-03-12T10:50:19.261Z,46.33
2023-03-12T10:52:47.271Z,48.55
2023-03-12T10:55:16.630Z,55.92
2023-03-12T10:57:43.061Z,47.03
2023-03-12T11:00:12.794Z,41.47
2023-03-12T11:02:41.453Z,40.30
2023-03-12T11:05:19.877Z,41.85
2023-03-12T11:07:46.282Z,50.92
2023-03-12T11:10:14.606Z,47.13
2023-03-12T11:12:51.081Z,47.85
2023-03-12T11:15:25.128Z,48.20
2023-03-12T11:17:51.652Z,43.80
2023-03-12T11:20:19.108Z,45.78
2023-03-12T11:22:45.463Z,43.92
2023-03-12T11:25:21.389Z,46.70
2023-03-12T11:27:51.403Z,46.90
2023-03-12T11:30:20.630Z,40.60
2023-03-12T11:32:48.114Z,37.92
2023-03-12T11:35:15.844Z,45.53
2023-03-12T11:37:48.554Z,36.20
2023-03-12T11:40:14.967Z,38.25
2023-03-12T11:42:52.605Z,41.53
2023-03-12T11:45:19.103Z,37.03
2023-03-12T11:47:45.555Z,31.17
2023-03-12T11:50:36.957Z,38.72
2023-03-12T11:53:09.387Z,35.90
2023-03-12T11:56:02.103Z,33.45
2023-03-12T11:58:47.196Z,34.50
2023-03-12T12:01:32.332Z,31.20
2023-03-12T12:04:18.960Z,31.27
2023-03-12T12:07:03.952Z,32.85
2023-03-12T12:09:30.288Z,29.80
2023-03-12T12:11:56.618Z,32.10
2023-03-12T12:14:33.259Z,26.35
2023-03-12T12:17:18.579Z,33.55
2023-03-12T12:20:09.385Z,36.40
2023-03-12T12:22:42.370Z,29.58
2023-03-12T12:25:25.984Z,30.80
2023-03-12T12:28:11.553Z,30.42
2023-03-12T12:30:46.208Z,29.95
2023-03-12T12:33:15.572Z,29.65
2023-03-12T12:35:43.193Z,34.38
2023-03-12T12:38:30.324Z,29.90
2023-03-12T12:41:16.999Z,38.95
2023-03-12T12:43:50.804Z,40.40
2023-03-12T12:46:18.763Z,32.50
2023-03-12T12:49:01.028Z,33.17
2023-03-12T12:51:30.428Z,32.28
2023-03-12T12:54:07.305Z,30.75
2023-03-12T12:56:53.383Z,28.35
2023-03-12T12:59:24.992Z,26.98
2023-03-12T13:01:52.607Z,39.35
2023-03-12T13:04:30.692Z,33.33
2023-03-12T13:07:24.085Z,30.63
2023-03-12T13:09:52.334Z,35.78
2023-03-12T13:12:21.362Z,34.42
2023-03-12T13:14:48.728Z,31.58
2023-03-12T13:17:27.743Z,24.77
2023-03-12T13:20:14.399Z,35.05
2023-03-12T13:22:48.418Z,36.65
2023-03-12T13:25:33.971Z,29.10
2023-03-12T13:28:01.402Z,28.23
2023-03-12T13:30:33.779Z,33.00
2023-03-12T13:33:03.169Z,30.85
2023-03-12T13:35:36.158Z,33.38
2023-03-12T13:38:04.655Z,28.52
2023-03-12T13:40:50.120Z,34.90
2023-03-12T13:43:30.225Z,42.95
2023-03-12T13:46:07.142Z,24.65
2023-03-12T13:48:34.536Z,30.20
2023-03-12T13:51:19.659Z,27.73
2023-03-12T13:53:53.809Z,37.67
2023-03-12T13:56:21.211Z,35.63
2023-03-12T13:58:47.588Z,34.20
2023-03-12T14:01:16.758Z,35.80
2023-03-12T14:03:45.587Z,28.30
2023-03-12T14:06:18.727Z,27.25
2023-03-12T14:08:54.087Z,29.83
2023-03-12T14:11:40.964Z,25.02
2023-03-12T14:14:16.186Z,24.65
2023-03-12T14:16:46.072Z,21.55
2023-03-12T14:19:13.240Z,22.70
2023-03-12T14:21:41.629Z,25.38
2023-03-12T14:24:08.610Z,25.05
2023-03-12T14:26:36.355Z,19.08
2023-03-12T14:29:06.582Z,27.55
2023-03-12T14:31:33.750Z,22.63
2023-03-12T14:34:05.820Z,26.75
2023-03-12T14:36:40.947Z,25.80
2023-03-12T14:39:27.109Z,20.15
2023-03-12T14:42:01.026Z,26.42
2023-03-12T14:44:28.613Z,25.15
2023-03-12T14:47:00.869Z,19.67
2023-03-12T14:49:30.919Z,26.48
2023-03-12T14:51:57.885Z,23.27
2023-03-12T14:54:25.836Z,22.52
2023-03-12T14:56:52.458Z,20.90
2023-03-12T14:59:32.668Z,25.42
2023-03-12T15:02:01.082Z,26.95
2023-03-12T15:04:28.011Z,29.17
2023-03-12T15:06:56.408Z,26.40
2023-03-12T15:09:26.934Z,17.85
2023-03-12T15:12:00.628Z,26.00
2023-03-12T15:14:28.595Z,27.50
2023-03-12T15:16:55.916Z,24.85
2023-03-12T15:19:26.207Z,27.90
2023-03-12T15:21:52.649Z,32.90
2023-03-12T15:24:20.580Z,23.27
2023-03-12T15:26:47.102Z,23.98
2023-03-12T15:29:27.174Z,34.70
2023-03-12T15:31:55.781Z,27.77
2023-03-12T15:34:32.669Z,29.27
2023-03-12T15:37:00.132Z,31.23
2023-03-12T15:39:37.248Z,24.15
2023-03-12T15:42:11.122Z,26.70
2023-03-12T15:44:48.303Z,25.27
2023-03-12T15:47:19.195Z,20.73
2023-03-12T15:52:24.806Z,22.60
2023-03-12T15:55:10.346Z,27.33
2023-03-12T15:57:53.195Z,24.52
2023-03-12T16:00:19.742Z,16.75
2023-03-12T16:02:56.592Z,23.27
2023-03-12T16:05:28.430Z,27.50
2023-03-12T16:07:54.916Z,23.13
2023-03-12T16:10:23.009Z,20.65
2023-03-12T16:12:49.997Z,29.83
2023-03-12T16:15:18.286Z,26.20
2023-03-12T16:17:44.877Z,21.35
2023-03-12T16:20:12.717Z,22.40
2023-03-12T16:22:39.180Z,22.23
2023-03-12T16:25:05.946Z,23.40
2023-03-12T16:27:38.867Z,25.88
2023-03-12T16:30:06.761Z,26.67
2023-03-12T16:32:33.111Z,23.95
2023-03-12T16:35:00.090Z,27.25
2023-03-12T16:37:26.745Z,30.13
2023-03-12T16:39:53.206Z,38.03
2023-03-12T16:42:20.551Z,27.83
2023-03-12T16:44:47.360Z,27.00
2023-03-12T16:47:14.434Z,23.90
2023-03-12T16:49:41.101Z,33.97
2023-03-12T16:52:21.087Z,32.00
2023-03-12T16:54:51.284Z,31.77
2023-03-12T16:57:26.538Z,31.92
2023-03-12T16:59:53.914Z,26.75
2023-03-12T17:02:21.382Z,23.67
2023-03-12T17:04:48.857Z,26.60
2023-03-12T17:07:15.381Z,22.05
2023-03-12T17:09:41.713Z,24.77
2023-03-12T17:12:15.345Z,33.08
2023-03-12T17:14:41.820Z,34.08
2023-03-12T17:17:08.898Z,29.27
2023-03-12T17:19:35.580Z,30.70
2023-03-12T17:22:01.934Z,28.83
2023-03-12T17:24:28.211Z,32.35
2023-03-12T17:26:55.536Z,26.20
2023-03-12T17:29:22.058Z,33.63
2023-03-12T17:31:48.477Z,29.17
2023-03-12T17:34:15.053Z,37.13
2023-03-12T17:36:41.555Z,25.15
2023-03-12T17:39:08.199Z,34.05
2023-03-12T17:41:35.550Z,32.70
2023-03-12T17:44:03.635Z,26.65
2023-03-12T17:46:30.711Z,32.42
2023-03-12T17:48:57.167Z,34.97
2023-03-12T17:51:23.485Z,33.10
2023-03-12T17:53:50.003Z,35.63
2023-03-12T17:56:18.003Z,28.92
2023-03-12T17:58:45.054Z,32.25
2023-03-12T18:01:13.161Z,19.48
2023-03-12T18:03:39.952Z,22.58
2023-03-12T18:06:06.557Z,29.17
2023-03-12T18:08:32.889Z,13.68
2023-03-12T18:10:59.740Z,18.42
2023-03-12T18:13:26.117Z,13.98
2023-03-12T18:15:54.001Z,10.68
2023-03-12T18:18:20.842Z,15.38
2023-03-12T18:20:47.757Z,14.05
2023-03-12T18:23:14.184Z,12.05
2023-03-12T18:25:41.146Z,13.18
2023-03-12T18:28:07.578Z,19.67
2023-03-12T18:30:34.381Z,16.42
2023-03-12T18:33:00.758Z,14.18
2023-03-12T18:35:30.467Z,13.68
2023-03-12T18:37:57.226Z,11.15
2023-03-12T18:40:23.972Z,8.95
2023-03-12T18:42:50.563Z,12.68
2023-03-12T18:45:16.899Z,16.40
2023-03-12T18:47:45.256Z,16.13
2023-03-12T18:50:12.242Z,11.65
2023-03-12T18:52:39.071Z,10.48
2023-03-12T18:55:05.592Z,17.77
2023-03-12T18:57:31.995Z,11.95
2023-03-12T18:59:59.335Z,13.25
2023-03-12T19:02:25.664Z,12.27
2023-03-12T19:04:54.205Z,19.65
2023-03-12T19:07:22.171Z,9.88
2023-03-12T19:09:48.749Z,12.90
2023-03-12T19:12:15.136Z,8.50
2023-03-12T19:14:41.608Z,10.50
2023-03-12T19:17:08.041Z,14.63
2023-03-12T19:19:34.363Z,12.05
2023-03-12T19:22:00.685Z,13.25
2023-03-12T19:24:27.107Z,12.50
2023-03-12T19:26:53.773Z,11.82
2023-03-12T19:29:20.091Z,14.07
2023-03-12T19:31:46.454Z,13.70
2023-03-12T19:34:12.922Z,11.80
2023-03-12T19:36:39.180Z,13.95
2023-03-12T19:39:15.243Z,15.07
2023-03-12T19:41:47.128Z,17.15
2023-03-12T19:44:13.401Z,12.35
2023-03-12T19:46:42.912Z,15.88
2023-03-12T19:49:09.354Z,13.82
2023-03-12T19:51:36.079Z,18.30
2023-03-12T19:54:02.413Z,22.45
2023-03-12T19:56:29.048Z,16.35
2023-03-12T19:58:55.351Z,22.63
2023-03-12T20:01:21.718Z,17.98
2023-03-12T20:03:48.113Z,19.20
2023-03-12T20:06:14.619Z,21.60
2023-03-12T20:08:40.996Z,22.38
2023-03-12T20:11:09.468Z,22.10
2023-03-12T20:13:37.965Z,20.02
2023-03-12T20:16:04.977Z,19.42
2023-03-12T20:18:31.419Z,19.17
2023-03-12T20:20:57.779Z,17.38
2023-03-12T20:23:27.062Z,22.00
2023-03-12T20:25:53.652Z,27.73
2023-03-12T20:28:20.035Z,25.13
2023-03-12T20:30:46.385Z,25.33
2023-03-12T20:33:13.011Z,26.92
2023-03-12T20:35:39.661Z,18.13
2023-03-12T20:38:06.075Z,22.60
2023-03-12T20:40:32.436Z,21.58
2023-03-12T20:42:58.852Z,21.48
2023-03-12T20:45:25.574Z,17.65
2023-03-12T20:47:53.448Z,31.45
2023-03-12T20:50:19.775Z,30.92
2023-03-12T20:52:46.100Z,23.63
2023-03-12T20:55:12.537Z,22.77
2023-03-12T20:57:38.878Z,22.00
2023-03-12T21:00:05.684Z,27.02
2023-03-12T21:02:32.111Z,16.38
2023-03-12T21:04:58.454Z,24.08
2023-03-12T21:07:24.860Z,24.55
2023-03-12T21:09:53.709Z,18.40
2023-03-12T21:12:20.058Z,21.60
2023-03-12T21:14:46.389Z,20.08
2023-03-12T21:17:13.757Z,20.98
2023-03-12T21:19:41.507Z,24.60
2023-03-12T21:22:08.387Z,22.10
2023-03-12T21:24:35.337Z,19.35
2023-03-12T21:27:01.949Z,19.38
2023-03-12T21:29:28.686Z,19.60
2023-03-12T21:31:55.078Z,29.23
2023-03-12T21:34:22.086Z,21.00
2023-03-12T21:36:48.909Z,27.45
2023-03-12T21:39:15.321Z,26.55
2023-03-12T21:41:41.633Z,23.48
2023-03-12T21:44:08.003Z,21.35
2023-03-12T21:46:34.410Z,27.95
2023-03-12T21:49:00.905Z,26.98
2023-03-12T21:51:27.258Z,20.75
2023-03-12T21:53:54.760Z,28.55
2023-03-12T21:56:21.467Z,22.50
2023-03-12T21:58:47.793Z,25.00
2023-03-12T22:01:17.819Z,25.00
2023-03-12T22:03:45.514Z,26.58
2023-03-12T22:06:12.459Z,17.17
2023-03-12T22:08:39.036Z,28.38
2023-03-12T22:11:06.531Z,22.00
2023-03-12T22:13:32.943Z,25.45
2023-03-12T22:16:00.462Z,23.25
2023-03-12T22:18:27.690Z,27.48
2023-03-12T22:20:54.898Z,28.88
2023-03-12T22:23:21.710Z,28.55
2023-03-12T22:25:48.082Z,28.35
2023-03-12T22:28:15.103Z,25.98
2023-03-12T22:30:41.431Z,22.60
2023-03-12T22:33:07.900Z,24.95
2023-03-12T22:35:34.308Z,23.63
2023-03-12T22:38:00.665Z,28.90
2023-03-12T22:40:27.187Z,32.13
2023-03-12T22:42:56.080Z,29.80
2023-03-12T22:45:22.499Z,20.95
2023-03-12T22:47:48.781Z,27.13
2023-03-12T22:50:15.135Z,36.83
2023-03-12T22:52:41.645Z,26.48
2023-03-12T22:55:08.174Z,22.50
2023-03-12T22:57:35.305Z,24.95
2023-03-12T23:00:01.708Z,34.85
2023-03-12T23:02:28.235Z,24.70
2023-03-12T23:04:54.568Z,27.90
2023-03-12T23:07:21.080Z,21.48
2023-03-12T23:09:47.461Z,21.17
2023-03-12T23:12:13.845Z,25.98
2023-03-12T23:14:40.149Z,24.15
2023-03-12T23:17:06.435Z,24.25
2023-03-12T23:19:33.596Z,25.85
2023-03-12T23:21:59.940Z,22.83
2023-03-12T23:24:26.247Z,27.67
2023-03-12T23:26:54.778Z,24.90
2023-03-12T23:29:21.052Z,30.38
2023-03-12T23:31:47.361Z,18.58
2023-03-12T23:34:13.857Z,26.08
2023-03-12T23:36:40.235Z,22.42
2023-03-12T23:39:06.564Z,28.40
2023-03-12T23:41:32.935Z,25.33
2023-03-12T23:43:59.406Z,27.52
2023-03-12T23:46:27.441Z,20.30
2023-03-12T23:48:53.892Z,21.83
2023-03-12T23:51:21.469Z,26.55
2023-03-12T23:53:49.209Z,24.50
2023-03-12T23:56:17.456Z,20.63
2023-03-12T23:58:44.655Z,27.35
